Time;durP1;ratioP1;P1;durP2;ratioP2;P2;SDS_P1;SDS_P2;PMS_P1;PMS_P2;Temp;Humidity;BMP_temperature;BMP_pressure;BME280_temperature;BME280_humidity;BME280_pressure;Samples;Min_cycle;Max_cycle;Signal;HPM_P1;HPM_P2
2023/01/08 00:01:10;;;;;;;9.90;5.80;;;;;;;3.18;100.00;96724.38;5043549;28;20247;-62
2023/01/08 00:03:38;;;;;;;9.05;5.10;;;;;;;3.21;100.00;96710.56;5045948;28;20049;-64
2023/01/08 00:06:08;;;;;;;10.65;5.68;;;;;;;3.01;100.00;96705.38;5044942;28;20045;-63
2023/01/08 00:08:34;;;;;;;10.15;5.35;;;;;;;2.80;100.00;96710.13;5044676;28;20041;-64
2023/01/08 00:11:01;;;;;;;8.38;4.95;;;;;;;2.66;100.00;96712.91;5044314;28;20049;-63
2023/01/08 00:13:28;;;;;;;9.88;4.82;;;;;;;2.72;100.00;96716.53;5044752;28;20048;-64
2023/01/08 00:15:54;;;;;;;10.60;5.43;;;;;;;2.75;100.00;96717.94;5048348;28;20060;-64
2023/01/08 00:18:21;;;;;;;8.93;5.15;;;;;;;2.75;100.00;96718.78;5049069;28;20045;-64
2023/01/08 00:20:48;;;;;;;9.73;5.18;;;;;;;2.76;100.00;96719.59;5047352;28;20037;-63
2023/01/08 00:23:16;;;;;;;9.82;6.15;;;;;;;2.53;100.00;96720.97;5048332;28;20448;-64
2023/01/08 00:25:43;;;;;;;9.68;5.50;;;;;;;2.51;100.00;96712.38;5047963;28;20053;-63
2023/01/08 00:28:10;;;;;;;10.18;6.05;;;;;;;2.64;100.00;96700.75;5049260;28;20054;-64
2023/01/08 00:30:37;;;;;;;10.68;5.30;;;;;;;2.77;100.00;96681.97;5047076;28;20715;-64
2023/01/08 00:33:03;;;;;;;10.77;5.78;;;;;;;2.87;100.00;96676.09;5048457;28;20638;-64
2023/01/08 00:35:30;;;;;;;8.32;5.22;;;;;;;3.12;100.00;96670.72;5048385;28;20052;-64
2023/01/08 00:37:56;;;;;;;9.95;5.45;;;;;;;3.25;100.00;96659.06;5048405;28;20175;-62
2023/01/08 00:40:23;;;;;;;8.80;5.13;;;;;;;3.02;100.00;96661.56;5047229;28;20049;-64
2023/01/08 00:42:49;;;;;;;8.15;4.97;;;;;;;2.92;100.00;96665.59;5047953;28;20746;-63
2023/01/08 00:45:16;;;;;;;10.18;5.03;;;;;;;3.02;100.00;96670.41;5046691;28;20095;-64
2023/01/08 00:47:42;;;;;;;8.10;4.97;;;;;;;3.12;100.00;96667.22;5048196;28;20053;-63
2023/01/08 00:50:09;;;;;;;9.65;5.07;;;;;;;3.14;100.00;96667.84;5048058;28;20037;-62
2023/01/08 00:52:36;;;;;;;7.22;4.50;;;;;;;3.09;100.00;96678.34;5046282;28;20162;-63
2023/01/08 00:55:02;;;;;;;9.25;5.18;;;;;;;3.37;100.00;96666.34;5046926;28;20052;-63
2023/01/08 00:57:36;;;;;;;8.73;5.10;;;;;;;3.63;100.00;96659.88;5048126;28;20041;-62
2023/01/08 01:00:06;;;;;;;10.82;5.55;;;;;;;4.05;100.00;96646.78;5047313;28;20519;-62
2023/01/08 01:02:34;;;;;;;9.75;4.97;;;;;;;4.12;100.00;96647.47;5046844;28;20079;-63
2023/01/08 01:05:01;;;;;;;9.73;5.10;;;;;;;4.21;100.00;96645.31;5047196;28;20578;-63
2023/01/08 01:07:27;;;;;;;9.05;5.47;;;;;;;4.35;100.00;96651.28;5046639;28;20045;-62
2023/01/08 01:09:53;;;;;;;8.10;4.85;;;;;;;4.36;98.98;96653.75;5047894;28;20080;-62
2023/01/08 01:12:20;;;;;;;8.50;4.55;;;;;;;4.29;98.71;96650.34;5055314;28;20557;-63
2023/01/08 01:14:47;;;;;;;8.45;5.22;;;;;;;4.19;100.00;96650.06;5066995;28;20044;-62
2023/01/08 01:17:13;;;;;;;10.18;5.00;;;;;;;4.16;100.00;96641.44;5054959;28;20049;-63
2023/01/08 01:19:40;;;;;;;8.60;4.55;;;;;;;4.09;100.00;96647.97;5047514;28;20137;-62
2023/01/08 01:22:06;;;;;;;7.53;4.03;;;;;;;4.03;100.00;96636.28;5045001;28;20044;-63
2023/01/08 01:24:33;;;;;;;8.00;4.82;;;;;;;3.80;100.00;96631.66;5046310;28;20095;-63
2023/01/08 01:26:59;;;;;;;8.70;4.93;;;;;;;3.69;100.00;96626.00;5046939;28;20040;-62
2023/01/08 01:29:26;;;;;;;8.57;4.65;;;;;;;3.72;100.00;96632.78;5046982;28;20083;-63
2023/01/08 01:31:56;;;;;;;7.80;4.78;;;;;;;3.65;100.00;96632.88;5046160;28;20132;-63
2023/01/08 01:34:23;;;;;;;9.95;4.60;;;;;;;3.33;100.00;96633.88;5047465;28;20485;-63
2023/01/08 01:36:49;;;;;;;8.20;4.55;;;;;;;3.33;100.00;96641.06;5026888;28;20091;-63
2023/01/08 01:39:16;;;;;;;7.93;4.90;;;;;;;3.38;100.00;96638.53;5027121;28;20048;-62
2023/01/08 01:41:44;;;;;;;7.65;4.40;;;;;;;3.44;100.00;96642.19;5026583;28;20550;-63
2023/01/08 01:44:40;;;;;;;10.15;5.22;;;;;;;3.50;100.00;96644.78;5025873;28;20844;-63
2023/01/08 01:47:24;;;;;;;8.93;5.10;;;;;;;3.58;100.00;96650.88;5027901;28;20033;-64
2023/01/08 01:50:01;;;;;;;8.20;4.63;;;;;;;3.36;100.00;96651.34;5045780;28;20482;-63
2023/01/08 01:52:31;;;;;;;7.60;4.90;;;;;;;3.37;100.00;96639.59;5045328;28;20053;-63
2023/01/08 01:55:00;;;;;;;8.80;4.97;;;;;;;3.47;100.00;96641.75;5046862;28;20552;-63
2023/01/08 01:57:31;;;;;;;9.82;4.65;;;;;;;3.60;100.00;96638.06;5046786;28;20560;-63
2023/01/08 02:00:00;;;;;;;9.23;4.65;;;;;;;3.47;100.00;96636.41;5046722;28;20087;-63
2023/01/08 02:02:26;;;;;;;6.40;4.18;;;;;;;3.48;100.00;96638.84;5045408;28;20056;-62
2023/01/08 02:04:53;;;;;;;10.15;5.38;;;;;;;4.21;100.00;96616.66;5045206;28;20053;-63
2023/01/08 02:07:48;;;;;;;7.75;4.97;;;;;;;4.86;97.31;96621.38;5046332;28;20044;-62
2023/01/08 02:10:46;;;;;;;6.90;4.28;;;;;;;5.13;95.40;96626.25;5038535;28;20075;-62
2023/01/08 02:13:41;;;;;;;8.60;5.20;;;;;;;5.24;94.66;96621.94;5044370;28;20060;-63
2023/01/08 02:16:14;;;;;;;6.70;4.20;;;;;;;5.28;94.12;96623.09;5025193;28;20132;-62
2023/01/08 02:18:41;;;;;;;;;;;;;;;5.29;93.52;96609.44;5035581;28;20019;-63
2023/01/08 02:21:09;;;;;;;;;;;;;;;5.29;93.65;96609.44;5045475;28;19921;-61
2023/01/08 02:23:46;;;;;;;;;;;;;;;5.38;93.01;96615.22;5046143;28;20023;-62
2023/01/08 02:26:12;;;;;;;;;;;;;;;5.40;92.82;96605.09;5046929;28;20332;-64
2023/01/08 02:28:41;;;;;;;;;;;;;;;5.42;92.68;96608.34;5046095;28;20432;-63
2023/01/08 02:31:07;;;;;;;;;;;;;;;5.38;92.24;96599.13;5045522;28;20379;-62
2023/01/08 02:33:34;;;;;;;7.88;4.70;;;;;;;5.46;92.05;96597.97;5046861;28;20003;-62
2023/01/08 02:36:30;;;;;;;7.88;4.72;;;;;;;5.48;91.61;96598.50;5044497;28;20072;-62
2023/01/08 02:39:06;;;;;;;7.30;4.55;;;;;;;5.47;91.58;96594.22;5041480;28;20100;-63
2023/01/08 02:41:55;;;;;;;8.00;3.92;;;;;;;5.53;91.20;96579.03;5037855;28;20052;-63
2023/01/08 02:44:34;;;;;;;7.65;4.38;;;;;;;5.54;90.64;96576.09;5044082;28;20095;-63
2023/01/08 02:47:05;;;;;;;6.63;3.97;;;;;;;5.63;90.26;96573.03;5036285;28;20518;-63
2023/01/08 02:49:37;;;;;;;6.53;3.70;;;;;;;5.71;89.74;96567.25;5044791;28;20048;-63
2023/01/08 02:52:07;;;;;;;8.20;4.88;;;;;;;5.77;89.02;96578.91;5044711;28;20087;-63
2023/01/08 02:54:35;;;;;;;7.80;4.20;;;;;;;5.77;88.82;96571.69;5044225;28;20091;-63
2023/01/08 02:57:07;;;;;;;8.30;4.03;;;;;;;5.78;88.61;96559.88;5045038;28;20611;-63
2023/01/08 02:59:35;;;;;;;7.15;3.78;;;;;;;5.77;89.04;96554.72;5045570;28;20048;-63
2023/01/08 03:02:03;;;;;;;6.63;4.05;;;;;;;5.77;88.90;96555.56;5043930;28;20033;-63
2023/01/08 03:04:36;;;;;;;6.65;3.95;;;;;;;5.78;88.76;96553.69;5045671;28;20404;-63
2023/01/08 03:07:03;;;;;;;6.53;3.80;;;;;;;5.71;88.84;96549.28;5045407;28;20055;-63
2023/01/08 03:09:29;;;;;;;7.43;4.13;;;;;;;5.67;89.16;96547.28;5044947;28;20099;-63
2023/01/08 03:12:10;;;;;;;7.80;4.45;;;;;;;5.63;89.46;96541.59;5044370;28;20052;-62
2023/01/08 03:14:45;;;;;;;8.82;4.22;;;;;;;5.59;89.87;96533.22;5041690;28;20838;-63
2023/01/08 03:17:30;;;;;;;10.30;4.40;;;;;;;5.55;90.30;96532.06;5045645;28;20064;-63
2023/01/08 03:20:23;;;;;;;6.40;4.13;;;;;;;5.62;89.89;96531.91;5044867;28;20502;-63
2023/01/08 03:22:55;;;;;;;8.25;4.28;;;;;;;5.56;90.12;96531.00;5041263;28;20447;-63
2023/01/08 03:25:25;;;;;;;5.78;4.15;;;;;;;5.53;90.51;96536.06;5044802;28;20128;-63
2023/01/08 03:27:56;;;;;;;7.03;3.63;;;;;;;5.53;90.88;96528.00;5045058;28;20052;-63
2023/01/08 03:30:23;;;;;;;6.85;3.42;;;;;;;5.50;91.34;96525.78;5044694;28;20102;-63
2023/01/08 03:32:51;;;;;;;7.38;3.83;;;;;;;5.57;90.80;96524.56;5044977;28;20040;-64
2023/01/08 03:35:21;;;;;;;7.78;3.50;;;;;;;5.59;90.69;96519.78;5044797;28;20120;-62
2023/01/08 03:37:59;;;;;;;8.68;4.00;;;;;;;5.59;90.33;96510.91;5045510;28;20120;-63
2023/01/08 03:40:34;;;;;;;7.93;4.10;;;;;;;5.56;90.63;96520.25;5043669;28;20087;-63
2023/01/08 03:43:00;;;;;;;7.60;4.30;;;;;;;5.57;90.19;96513.84;5044082;28;20527;-63
2023/01/08 03:45:30;;;;;;;6.65;3.92;;;;;;;5.59;90.23;96511.75;5043109;28;20061;-62
2023/01/08 03:47:58;;;;;;;5.97;4.00;;;;;;;5.57;90.03;96510.34;5045266;28;20045;-62
2023/01/08 03:50:30;;;;;;;7.20;4.40;;;;;;;5.58;89.71;96518.16;5048255;28;20099;-63
2023/01/08 03:52:57;;;;;;;7.82;4.05;;;;;;;5.55;89.73;96521.31;5048516;28;20079;-62
2023/01/08 03:55:26;;;;;;;7.72;4.22;;;;;;;5.57;89.82;96508.47;5048703;28;20053;-62
2023/01/08 03:57:52;;;;;;;7.03;4.05;;;;;;;5.59;89.35;96514.41;5048049;28;20711;-63
2023/01/08 04:00:19;;;;;;;7.43;4.00;;;;;;;5.63;89.45;96519.31;5047879;28;20127;-63
2023/01/08 04:02:45;;;;;;;6.88;3.97;;;;;;;5.67;88.97;96512.38;5047365;28;20052;-63
2023/01/08 04:05:12;;;;;;;6.82;4.18;;;;;;;5.78;88.23;96516.09;5048627;28;20090;-63
2023/01/08 04:07:38;;;;;;;7.50;3.67;;;;;;;5.80;88.06;96501.34;5048723;28;20052;-63
2023/01/08 04:10:05;;;;;;;6.53;3.47;;;;;;;5.92;87.63;96505.81;5048539;28;20136;-63
2023/01/08 04:12:32;;;;;;;5.55;3.20;;;;;;;5.91;87.27;96509.56;5058092;28;20102;-63
2023/01/08 04:14:59;;;;;;;6.38;3.75;;;;;;;5.87;87.53;96503.88;5057972;28;20049;-63
2023/01/08 04:17:25;;;;;;;6.47;3.50;;;;;;;5.83;87.85;96503.53;5048810;28;20048;-63
2023/01/08 04:19:52;;;;;;;6.82;3.70;;;;;;;5.77;88.24;96499.16;5049347;28;20124;-61
2023/01/08 04:22:18;;;;;;;5.72;3.08;;;;;;;5.77;88.86;96496.47;5047308;28;20041;-63
2023/01/08 04:24:44;;;;;;;7.38;3.30;;;;;;;5.71;89.67;96508.16;5048032;28;20456;-62
2023/01/08 04:27:11;;;;;;;8.23;3.78;;;;;;;5.66;90.41;96513.44;5048668;28;20124;-63
2023/01/08 04:29:37;;;;;;;5.78;3.70;;;;;;;5.64;90.81;96510.19;5047535;28;20037;-64
2023/01/08 04:32:04;;;;;;;6.82;3.47;;;;;;;5.72;90.57;96517.88;5046558;28;20041;-62
2023/01/08 04:34:30;;;;;;;5.28;3.22;;;;;;;5.72;91.06;96517.88;5048248;28;20076;-63
2023/01/08 04:36:57;;;;;;;5.78;2.80;;;;;;;5.81;90.61;96513.72;5047437;28;20061;-62
2023/01/08 04:39:24;;;;;;;7.65;3.50;;;;;;;5.83;90.79;96518.84;5047904;28;20057;-62
2023/01/08 04:41:50;;;;;;;4.90;2.92;;;;;;;5.77;91.21;96517.94;5047280;28;20033;-63
2023/01/08 04:44:17;;;;;;;4.82;2.97;;;;;;;5.80;90.87;96519.34;5046587;28;20515;-63
2023/01/08 04:46:43;;;;;;;6.13;2.95;;;;;;;5.84;90.69;96525.84;5048280;28;20041;-62
2023/01/08 04:49:11;;;;;;;5.13;3.13;;;;;;;5.82;90.43;96526.09;5048508;28;20041;-64
2023/01/08 04:51:37;;;;;;;5.53;2.85;;;;;;;5.85;89.84;96522.09;5046245;28;20069;-63
2023/01/08 04:54:04;;;;;;;5.25;2.80;;;;;;;5.89;89.76;96519.75;5048100;28;20072;-63
2023/01/08 04:56:31;;;;;;;5.55;2.83;;;;;;;5.98;88.42;96521.78;5047476;28;20048;-63
2023/01/08 04:58:57;;;;;;;6.00;3.38;;;;;;;5.92;89.42;96508.50;5046681;28;20052;-63
2023/01/08 05:01:26;;;;;;;5.38;3.55;;;;;;;5.86;89.55;96521.03;5045693;28;20049;-63
2023/01/08 05:03:55;;;;;;;6.13;3.33;;;;;;;5.81;89.68;96512.91;5047464;28;20052;-62
2023/01/08 05:06:22;;;;;;;5.82;3.25;;;;;;;5.81;89.35;96521.78;5047227;28;20045;-63
2023/01/08 05:08:48;;;;;;;6.45;3.55;;;;;;;5.81;89.60;96527.16;5047853;28;20041;-62
2023/01/08 05:11:14;;;;;;;6.28;3.13;;;;;;;5.90;88.75;96526.75;5046211;28;20041;-64
2023/01/08 05:13:41;;;;;;;4.88;2.75;;;;;;;5.87;89.19;96520.00;5058756;28;20099;-64
2023/01/08 05:16:08;;;;;;;4.95;2.80;;;;;;;5.96;88.03;96523.09;5046676;28;20092;-63
2023/01/08 05:18:34;;;;;;;5.10;2.97;;;;;;;5.95;88.35;96521.47;5047945;28;20064;-63
2023/01/08 05:21:02;;;;;;;5.97;3.10;;;;;;;5.91;88.69;96520.31;5046255;28;20103;-64
2023/01/08 05:23:29;;;;;;;6.10;3.20;;;;;;;5.89;88.71;96519.75;5047256;28;20106;-63
2023/01/08 05:26:00;;;;;;;4.78;3.00;;;;;;;5.98;88.06;96516.41;5046918;28;20182;-63
2023/01/08 05:28:27;;;;;;;5.35;3.17;;;;;;;5.96;88.18;96506.97;5047000;28;20056;-63
2023/01/08 05:30:53;;;;;;;5.68;2.97;;;;;;;6.02;88.20;96506.00;5045910;28;20153;-63
2023/01/08 05:33:21;;;;;;;4.70;2.40;;;;;;;6.14;88.26;96503.25;5047838;28;20059;-63
2023/01/08 05:35:47;;;;;;;4.32;2.47;;;;;;;6.27;88.11;96504.81;5045958;28;20049;-62
2023/01/08 05:38:14;;;;;;;4.10;2.08;;;;;;;6.38;88.55;96503.88;5047343;28;20476;-64
2023/01/08 05:40:41;;;;;;;5.15;2.47;;;;;;;6.47;89.04;96501.59;5045813;28;20072;-63
2023/01/08 05:43:07;;;;;;;3.40;1.58;;;;;;;6.54;89.46;96498.75;5046435;28;20128;-62
2023/01/08 05:45:34;;;;;;;5.07;1.80;;;;;;;6.61;89.56;96499.41;5046246;28;20132;-63
2023/01/08 05:48:05;;;;;;;3.63;1.70;;;;;;;6.64;89.98;96493.50;5047281;28;20535;-62
2023/01/08 05:50:33;;;;;;;3.63;1.42;;;;;;;6.69;90.00;96492.75;5045372;28;20070;-63
2023/01/08 05:52:59;;;;;;;2.83;1.40;;;;;;;6.74;90.40;96495.50;5047197;28;20099;-63
2023/01/08 05:55:26;;;;;;;2.65;1.50;;;;;;;6.76;90.40;96504.16;5046082;28;20070;-63
2023/01/08 05:57:52;;;;;;;2.70;1.52;;;;;;;6.81;90.57;96506.09;5046751;28;20041;-63
2023/01/08 06:00:19;;;;;;;2.30;1.38;;;;;;;6.81;90.92;96503.41;5046838;28;20659;-63
2023/01/08 06:02:47;;;;;;;3.10;1.60;;;;;;;6.80;91.40;96506.34;5046027;28;20120;-62
2023/01/08 06:05:14;;;;;;;2.85;1.50;;;;;;;6.75;91.69;96507.91;5045462;28;20420;-63
2023/01/08 06:07:40;;;;;;;2.13;1.20;;;;;;;6.84;91.39;96497.53;5046596;28;20088;-63
2023/01/08 06:10:07;;;;;;;3.20;1.40;;;;;;;6.84;91.86;96491.31;5047051;28;20472;-64
2023/01/08 06:12:34;;;;;;;3.08;1.25;;;;;;;6.83;92.17;96495.09;5055508;28;20439;-63
2023/01/08 06:15:00;;;;;;;2.20;1.00;;;;;;;6.81;92.14;96487.25;5056043;28;20128;-60
2023/01/08 06:17:27;;;;;;;2.10;0.88;;;;;;;6.83;92.45;96495.91;5046502;28;20033;-61
2023/01/08 06:19:53;;;;;;;2.83;1.25;;;;;;;6.77;92.86;96488.81;5044985;28;20087;-61
2023/01/08 06:22:20;;;;;;;1.95;0.93;;;;;;;6.77;93.19;96488.81;5044559;28;20112;-61
2023/01/08 06:24:46;;;;;;;2.28;1.10;;;;;;;6.81;92.91;96481.88;5046060;28;20068;-61
2023/01/08 06:27:13;;;;;;;1.98;1.13;;;;;;;6.77;93.29;96480.75;5045159;28;20087;-61
2023/01/08 06:29:39;;;;;;;2.28;1.27;;;;;;;6.80;93.35;96487.50;5046399;28;20060;-61
2023/01/08 06:32:06;;;;;;;2.13;1.10;;;;;;;6.79;93.55;96480.50;5045044;28;20087;-61
2023/01/08 06:34:32;;;;;;;3.53;1.35;;;;;;;6.87;93.12;96474.69;5044974;28;20044;-61
2023/01/08 06:36:59;;;;;;;1.95;1.08;;;;;;;6.88;92.88;96466.38;5046245;28;20103;-61
2023/01/08 06:39:25;;;;;;;2.65;1.33;;;;;;;6.84;93.41;96473.31;5045945;28;20056;-61
2023/01/08 06:41:52;;;;;;;2.85;1.30;;;;;;;6.81;93.31;96464.94;5044040;28;20821;-61
2023/01/08 06:44:18;;;;;;;2.03;1.00;;;;;;;6.84;93.15;96464.41;5045578;28;20045;-61
2023/01/08 06:46:45;;;;;;;2.35;1.20;;;;;;;6.84;93.26;96473.31;5045405;28;20709;-61
2023/01/08 06:49:13;;;;;;;2.08;1.00;;;;;;;6.86;93.46;96463.09;5045685;28;20067;-61
2023/01/08 06:51:40;;;;;;;1.65;1.00;;;;;;;6.90;93.19;96468.81;5044290;28;20041;-61
2023/01/08 06:54:06;;;;;;;1.80;0.90;;;;;;;6.95;92.65;96460.78;5045266;28;20037;-61
2023/01/08 06:56:33;;;;;;;1.40;0.75;;;;;;;6.97;92.45;96468.63;5045427;28;20128;-61
2023/01/08 06:59:17;;;;;;;1.77;0.80;;;;;;;6.99;92.44;96464.63;5044303;28;20055;-60
2023/01/08 07:01:44;;;;;;;2.03;0.90;;;;;;;6.99;92.12;96463.78;5044735;28;20111;-61
2023/01/08 07:04:10;;;;;;;2.08;0.63;;;;;;;7.08;91.79;96456.09;5045488;28;20048;-61
2023/01/08 07:06:37;;;;;;;2.22;0.82;;;;;;;7.02;92.55;96452.53;5044747;28;20549;-62
2023/01/08 07:09:03;;;;;;;1.55;0.90;;;;;;;7.10;91.97;96443.19;5046387;28;20120;-59
2023/01/08 07:11:30;;;;;;;2.45;0.90;;;;;;;7.09;91.95;96460.41;5045695;28;20069;-61
2023/01/08 07:13:56;;;;;;;2.40;0.80;;;;;;;7.10;91.97;96465.53;5065970;28;20048;-61
2023/01/08 07:16:23;;;;;;;2.03;1.05;;;;;;;7.10;92.02;96464.72;5051760;28;20033;-61
2023/01/08 07:18:50;;;;;;;1.50;0.75;;;;;;;7.09;92.09;96471.16;5045146;28;20051;-61
2023/01/08 07:21:16;;;;;;;1.25;0.70;;;;;;;7.11;92.04;96463.66;5044362;28;20041;-62
2023/01/08 07:23:44;;;;;;;2.13;0.98;;;;;;;7.13;91.64;96459.66;5046506;28;20120;-61
2023/01/08 07:26:11;;;;;;;1.98;0.90;;;;;;;7.09;92.78;96469.31;5048168;28;20041;-61
2023/01/08 07:28:37;;;;;;;1.83;0.88;;;;;;;7.03;93.01;96473.81;5049257;28;20068;-61
2023/01/08 07:31:05;;;;;;;1.65;0.90;;;;;;;7.00;93.54;96462.72;5048166;28;20049;-61
2023/01/08 07:33:32;;;;;;;2.80;0.90;;;;;;;7.02;92.94;96466.81;5049344;28;20103;-61
2023/01/08 07:35:58;;;;;;;1.75;0.93;;;;;;;7.03;92.77;96467.59;5048341;28;20049;-61
2023/01/08 07:38:25;;;;;;;1.73;0.90;;;;;;;7.02;92.90;96465.97;5049069;28;20052;-61
2023/01/08 07:40:52;;;;;;;1.75;0.98;;;;;;;7.01;92.83;96467.06;5048141;28;20118;-61
2023/01/08 07:43:19;;;;;;;1.42;0.70;;;;;;;6.99;93.10;96471.88;5048731;28;20044;-60
2023/01/08 07:45:45;;;;;;;2.00;0.90;;;;;;;6.96;93.67;96477.78;5046957;28;20097;-61
2023/01/08 07:48:15;;;;;;;1.48;0.70;;;;;;;6.96;93.97;96475.06;5046869;28;20424;-60
2023/01/08 07:50:43;;;;;;;1.35;0.68;;;;;;;6.94;95.22;96463.72;5046058;28;20052;-61
2023/01/08 07:53:11;;;;;;;2.15;0.70;;;;;;;6.94;94.85;96463.72;5048937;28;20048;-61
2023/01/08 07:55:38;;;;;;;1.58;0.98;;;;;;;6.93;95.25;96475.56;5048305;28;20045;-62
2023/01/08 07:58:09;;;;;;;2.03;0.75;;;;;;;6.87;96.03;96480.06;5048712;28;20128;-61
2023/01/08 08:00:35;;;;;;;2.17;1.00;;;;;;;6.81;96.79;96463.03;5047936;28;20076;-61
2023/01/08 08:03:06;;;;;;;4.25;1.00;;;;;;;6.80;97.17;96469.50;5048280;28;20037;-60
2023/01/08 08:05:33;;;;;;;1.90;0.97;;;;;;;6.74;98.05;96462.41;5047487;28;20500;-61
2023/01/08 08:08:00;;;;;;;1.67;0.80;;;;;;;6.78;97.84;96463.53;5049274;28;20079;-61
2023/01/08 08:10:27;;;;;;;2.65;0.93;;;;;;;6.74;98.92;96468.59;5046854;28;20056;-61
2023/01/08 08:12:53;;;;;;;1.88;0.80;;;;;;;6.75;99.24;96459.47;5047889;28;20118;-61
2023/01/08 08:15:20;;;;;;;1.45;0.60;;;;;;;6.73;99.60;96469.69;5047812;28;20081;-61
2023/01/08 08:17:47;;;;;;;1.73;0.80;;;;;;;6.67;100.00;96472.56;5048540;28;20049;-61
2023/01/08 08:20:15;;;;;;;1.88;0.73;;;;;;;6.67;99.80;96459.91;5047918;28;20045;-61
2023/01/08 08:22:41;;;;;;;1.30;0.70;;;;;;;6.70;100.00;96454.03;5046557;28;20056;-61
2023/01/08 08:25:08;;;;;;;3.92;0.98;;;;;;;6.67;100.00;96456.41;5048001;28;20647;-61
2023/01/08 08:27:35;;;;;;;2.53;0.95;;;;;;;6.68;100.00;96455.34;5047866;28;20529;-61
2023/01/08 08:30:02;;;;;;;1.20;0.80;;;;;;;6.65;100.00;96445.91;5048100;28;20041;-61
2023/01/08 08:32:29;;;;;;;1.10;0.70;;;;;;;6.67;100.00;96459.91;5047561;28;20111;-61
2023/01/08 08:34:55;;;;;;;1.48;0.70;;;;;;;6.68;100.00;96444.59;5047546;28;20701;-61
2023/01/08 08:37:22;;;;;;;2.25;1.02;;;;;;;6.68;100.00;96447.28;5048311;28;20041;-61
2023/01/08 08:39:48;;;;;;;2.00;0.80;;;;;;;6.70;100.00;96447.81;5048630;28;20103;-61
2023/01/08 08:42:15;;;;;;;2.17;0.90;;;;;;;6.70;100.00;96453.19;5046318;28;20702;-61
2023/01/08 08:44:41;;;;;;;1.60;0.80;;;;;;;6.70;100.00;96445.13;5046877;28;20110;-61
2023/01/08 08:47:09;;;;;;;1.17;0.50;;;;;;;6.73;100.00;96447.34;5048263;28;20076;-61
2023/01/08 08:49:35;;;;;;;1.52;0.90;;;;;;;6.75;99.91;96446.00;5046811;28;20037;-61
2023/01/08 08:52:03;;;;;;;1.25;0.50;;;;;;;6.80;99.52;96442.59;5047790;28;20045;-61
2023/01/08 08:54:30;;;;;;;1.83;0.60;;;;;;;6.80;100.00;96431.00;5048028;28;20045;-61
2023/01/08 08:56:56;;;;;;;1.33;0.60;;;;;;;6.75;100.00;96437.94;5046555;28;20057;-61
2023/01/08 08:59:23;;;;;;;1.30;0.60;;;;;;;6.74;100.00;96427.44;5047671;28;20508;-60
2023/01/08 09:01:49;;;;;;;1.60;0.80;;;;;;;6.75;100.00;96437.16;5045369;28;20106;-61
2023/01/08 09:04:16;;;;;;;1.70;0.68;;;;;;;6.74;100.00;96438.19;5046302;28;20601;-61
2023/01/08 09:06:42;;;;;;;2.25;0.82;;;;;;;6.73;100.00;96434.72;5047169;28;20094;-61
2023/01/08 09:09:09;;;;;;;2.83;0.77;;;;;;;6.71;100.00;96438.72;5047757;28;20041;-61
2023/01/08 09:11:35;;;;;;;1.67;0.82;;;;;;;6.68;100.00;96440.03;5045727;28;20619;-61
2023/01/08 09:14:02;;;;;;;2.25;0.90;;;;;;;6.72;100.00;96441.16;5045791;28;20044;-61
2023/01/08 09:16:28;;;;;;;2.30;1.10;;;;;;;6.71;100.00;96430.63;5046431;28;20049;-61
2023/01/08 09:18:55;;;;;;;3.17;1.23;;;;;;;6.68;100.00;96437.34;5046391;28;20605;-61
2023/01/08 09:21:21;;;;;;;1.58;0.70;;;;;;;6.72;100.00;96445.72;5042534;28;20044;-61
2023/01/08 09:23:48;;;;;;;1.30;0.90;;;;;;;6.72;100.00;96437.63;5047755;28;20094;-61
2023/01/08 09:26:15;;;;;;;3.28;1.00;;;;;;;6.83;100.00;96434.03;5046959;28;20091;-61
2023/01/08 09:28:41;;;;;;;3.65;1.20;;;;;;;6.75;100.00;96437.16;5046987;28;20045;-61
2023/01/08 09:31:08;;;;;;;1.73;0.90;;;;;;;6.74;100.00;96436.31;5046408;28;20677;-61
2023/01/08 09:33:34;;;;;;;2.42;0.90;;;;;;;6.80;100.00;96441.75;5047347;28;20044;-61
2023/01/08 09:36:01;;;;;;;3.88;2.00;;;;;;;6.73;100.00;96440.09;5045933;28;20040;-61
2023/01/08 09:38:27;;;;;;;3.22;2.00;;;;;;;6.73;100.00;96445.47;5047852;28;20493;-61
2023/01/08 09:41:08;;;;;;;3.38;2.10;;;;;;;6.73;100.00;96455.41;5045426;28;20092;-61
2023/01/08 09:43:38;;;;;;;2.70;1.35;;;;;;;6.76;100.00;96446.84;5047253;28;20068;-61
2023/01/08 09:46:06;;;;;;;4.20;1.80;;;;;;;6.78;100.00;96438.53;5045031;28;20060;-61
2023/01/08 09:48:38;;;;;;;2.25;1.23;;;;;;;6.80;100.00;96447.16;5045607;28;20037;-61
2023/01/08 09:51:12;;;;;;;3.25;1.55;;;;;;;6.75;100.00;96445.22;5045355;28;20463;-61
2023/01/08 09:53:39;;;;;;;9.95;5.13;;;;;;;6.76;100.00;96446.84;5046841;28;20102;-61
2023/01/08 09:56:14;;;;;;;9.63;3.88;;;;;;;6.81;100.00;96448.78;5046881;28;20072;-61
2023/01/08 09:58:49;;;;;;;3.85;1.40;;;;;;;6.87;100.00;96453.97;5045569;28;20079;-61
2023/01/08 10:01:26;;;;;;;2.35;1.27;;;;;;;6.91;100.00;96454.28;5045161;28;20123;-61
2023/01/08 10:03:59;;;;;;;1.08;0.82;;;;;;;6.99;100.00;96451.16;5046478;28;20044;-61
2023/01/08 10:06:25;;;;;;;2.55;1.23;;;;;;;6.99;100.00;96453.03;5043956;28;20121;-61
2023/01/08 10:08:52;;;;;;;7.05;3.72;;;;;;;6.97;100.00;96444.41;5046401;28;20045;-61
2023/01/08 10:11:19;;;;;;;8.65;4.97;;;;;;;7.01;100.00;96449.00;5045103;28;20120;-61
2023/01/08 10:13:53;;;;;;;2.00;0.82;;;;;;;7.06;100.00;96456.34;5045613;28;20122;-61
2023/01/08 10:16:29;;;;;;;2.03;1.17;;;;;;;7.08;100.00;96448.03;5045239;28;20041;-61
2023/01/08 10:18:58;;;;;;;5.88;2.70;;;;;;;7.05;100.00;96445.81;5045098;28;20103;-61
2023/01/08 10:21:31;;;;;;;6.97;4.43;;;;;;;7.08;100.00;96453.41;5040733;28;20484;-61
2023/01/08 10:23:58;;;;;;;4.93;2.00;;;;;;;7.14;100.00;96442.44;5046575;28;20485;-61
2023/01/08 10:26:35;;;;;;;6.20;4.03;;;;;;;7.15;100.00;96444.06;5043892;28;20041;-61
2023/01/08 10:29:19;;;;;;;2.05;1.15;;;;;;;7.17;100.00;96441.13;5045986;28;20068;-61
2023/01/08 10:31:52;;;;;;;5.05;3.33;;;;;;;7.13;100.00;96435.44;5044400;28;20581;-61
2023/01/08 10:34:41;;;;;;;5.05;2.80;;;;;;;7.22;100.00;96433.09;5045409;28;20130;-61
2023/01/08 10:37:22;;;;;;;2.65;1.30;;;;;;;7.25;100.00;96426.38;5045573;28;20052;-61
2023/01/08 10:39:50;;;;;;;2.95;1.40;;;;;;;7.32;99.58;96421.59;5045502;28;20087;-61
2023/01/08 10:42:19;;;;;;;2.20;1.10;;;;;;;7.22;99.75;96422.31;5044606;28;20041;-61
2023/01/08 10:44:59;;;;;;;5.03;2.72;;;;;;;7.28;100.00;96424.00;5045095;28;20723;-61
2023/01/08 10:47:29;;;;;;;3.97;1.92;;;;;;;7.44;99.02;96424.13;5045996;28;20050;-61
2023/01/08 10:49:57;;;;;;;3.92;1.40;;;;;;;7.34;99.81;96424.84;5045468;28;20044;-61
2023/01/08 10:52:33;;;;;;;3.42;1.20;;;;;;;7.35;100.00;96422.97;5044038;28;20496;-61
2023/01/08 10:55:31;;;;;;;3.03;1.50;;;;;;;7.38;99.85;96425.97;5044921;28;20486;-61
2023/01/08 10:58:01;;;;;;;1.92;1.05;;;;;;;7.49;99.34;96426.88;5042924;28;20048;-61
2023/01/08 11:00:33;;;;;;;2.90;1.25;;;;;;;7.45;99.94;96420.41;5045255;28;20122;-61
2023/01/08 11:03:00;;;;;;;;;;;;;;;7.61;99.24;96407.03;5045754;28;20750;-61
2023/01/08 11:05:41;;;;;;;4.32;2.25;;;;;;;7.59;98.82;96404.59;5043928;28;19928;-61
2023/01/08 11:08:16;;;;;;;2.65;1.45;;;;;;;7.58;99.18;96404.84;5045894;28;20055;-61
2023/01/08 11:10:53;;;;;;;4.93;2.05;;;;;;;7.57;98.85;96404.06;5044418;28;20059;-61
2023/01/08 11:13:19;;;;;;;2.67;1.38;;;;;;;7.67;98.46;96395.25;5045034;28;20082;-62
2023/01/08 11:15:55;;;;;;;1.60;0.88;;;;;;;7.67;98.15;96379.88;5044756;28;20044;-61
2023/01/08 11:18:25;;;;;;;4.05;1.55;;;;;;;7.75;97.82;96381.31;5044853;28;20045;-61
2023/01/08 11:21:04;;;;;;;2.75;1.35;;;;;;;7.81;97.05;96374.06;5028984;28;20049;-61
2023/01/08 11:23:31;;;;;;;1.83;1.10;;;;;;;7.82;96.76;96375.69;5044971;28;20037;-61
2023/01/08 11:26:06;;;;;;;2.20;1.00;;;;;;;7.78;97.03;96374.59;5044891;28;20106;-61
2023/01/08 11:29:13;;;;;;;3.00;1.60;;;;;;;7.84;96.67;96367.31;5044204;28;20041;-61
2023/01/08 11:32:17;;;;;;;2.97;1.40;;;;;;;7.88;95.80;96365.75;5044219;28;20120;-61
2023/01/08 11:34:59;;;;;;;3.08;1.70;;;;;;;7.95;95.94;96355.56;5043773;28;20045;-61
2023/01/08 11:37:26;;;;;;;;;;;;;;;8.04;95.07;96361.28;5046102;28;20463;-61
2023/01/08 11:39:54;;;;;;;1.40;0.77;;;;;;;8.06;95.28;96354.56;5044936;28;19925;-61
2023/01/08 11:42:54;;;;;;;4.85;2.20;;;;;;;8.14;94.61;96347.84;5043391;28;20095;-61
2023/01/08 11:45:35;;;;;;;1.88;0.93;;;;;;;8.05;94.26;96349.41;5035309;28;20045;-61
2023/01/08 11:48:37;;;;;;;1.40;0.80;;;;;;;8.05;94.16;96347.53;5043668;28;20037;-62
2023/01/08 11:51:04;;;;;;;;;;;;;;;8.10;94.23;96335.97;4981332;28;20168;-61
2023/01/08 11:53:40;;;;;;;2.13;0.65;;;;;;;8.09;93.52;96345.13;5024144;28;19971;-61